sensor_id;sensor_type;location;lat;lon;timestamp;temperature;humidity
55785;DHT22;41709;52.536;5.688;2023-10-08T00:02:23;18.40;91.40
55785;DHT22;41709;52.536;5.688;2023-10-08T00:04:51;18.40;91.50
55785;DHT22;41709;52.536;5.688;2023-10-08T00:07:19;18.20;91.80
55785;DHT22;41709;52.536;5.688;2023-10-08T00:09:50;18.30;91.70
55785;DHT22;41709;52.536;5.688;2023-10-08T00:12:19;18.30;91.80
55785;DHT22;41709;52.536;5.688;2023-10-08T00:14:45;18.20;92.00
55785;DHT22;41709;52.536;5.688;2023-10-08T00:17:15;18.20;91.90
55785;DHT22;41709;52.536;5.688;2023-10-08T00:19:42;18.20;91.90
55785;DHT22;41709;52.536;5.688;2023-10-08T00:22:08;18.20;91.90
55785;DHT22;41709;52.536;5.688;2023-10-08T00:24:35;18.20;91.90
55785;DHT22;41709;52.536;5.688;2023-10-08T00:27:03;18.20;92.00
55785;DHT22;41709;52.536;5.688;2023-10-08T00:29:32;18.10;92.00
55785;DHT22;41709;52.536;5.688;2023-10-08T00:31:58;18.10;92.00
55785;DHT22;41709;52.536;5.688;2023-10-08T00:34:24;18.10;92.00
55785;DHT22;41709;52.536;5.688;2023-10-08T00:36:50;18.00;92.00
55785;DHT22;41709;52.536;5.688;2023-10-08T00:39:17;17.90;92.10
55785;DHT22;41709;52.536;5.688;2023-10-08T00:41:49;17.90;92.20
55785;DHT22;41709;52.536;5.688;2023-10-08T00:44:23;17.80;92.30
55785;DHT22;41709;52.536;5.688;2023-10-08T00:46:57;17.90;92.30
55785;DHT22;41709;52.536;5.688;2023-10-08T00:49:27;17.90;92.30
55785;DHT22;41709;52.536;5.688;2023-10-08T00:52:08;17.90;92.40
55785;DHT22;41709;52.536;5.688;2023-10-08T00:54:35;17.90;92.30
55785;DHT22;41709;52.536;5.688;2023-10-08T00:57:15;17.90;92.30
55785;DHT22;41709;52.536;5.688;2023-10-08T00:59:46;17.80;92.30
55785;DHT22;41709;52.536;5.688;2023-10-08T01:02:19;17.80;92.50
55785;DHT22;41709;52.536;5.688;2023-10-08T01:04:46;17.90;92.40
55785;DHT22;41709;52.536;5.688;2023-10-08T01:07:13;17.90;92.40
55785;DHT22;41709;52.536;5.688;2023-10-08T01:09:44;17.90;92.40
55785;DHT22;41709;52.536;5.688;2023-10-08T01:12:20;17.90;92.40
55785;DHT22;41709;52.536;5.688;2023-10-08T01:14:52;17.90;92.30
55785;DHT22;41709;52.536;5.688;2023-10-08T01:17:24;17.90;92.30
55785;DHT22;41709;52.536;5.688;2023-10-08T01:19:51;17.90;92.40
55785;DHT22;41709;52.536;5.688;2023-10-08T01:22:20;17.90;92.40
55785;DHT22;41709;52.536;5.688;2023-10-08T01:24:50;17.90;92.20
55785;DHT22;41709;52.536;5.688;2023-10-08T01:27:17;17.70;92.00
55785;DHT22;41709;52.536;5.688;2023-10-08T01:29:50;17.50;91.00
55785;DHT22;41709;52.536;5.688;2023-10-08T01:32:17;17.20;90.80
55785;DHT22;41709;52.536;5.688;2023-10-08T01:34:44;17.00;90.80
55785;DHT22;41709;52.536;5.688;2023-10-08T01:37:18;16.80;90.90
55785;DHT22;41709;52.536;5.688;2023-10-08T01:39:45;16.60;91.30
55785;DHT22;41709;52.536;5.688;2023-10-08T01:42:14;16.50;91.50
55785;DHT22;41709;52.536;5.688;2023-10-08T01:44:47;16.30;91.60
55785;DHT22;41709;52.536;5.688;2023-10-08T01:47:14;16.20;91.70
55785;DHT22;41709;52.536;5.688;2023-10-08T01:49:44;16.10;91.90
55785;DHT22;41709;52.536;5.688;2023-10-08T01:52:12;16.10;92.00
55785;DHT22;41709;52.536;5.688;2023-10-08T01:54:47;16.00;92.10
55785;DHT22;41709;52.536;5.688;2023-10-08T01:57:13;16.00;92.30
55785;DHT22;41709;52.536;5.688;2023-10-08T01:59:40;15.80;92.30
55785;DHT22;41709;52.536;5.688;2023-10-08T02:02:06;15.80;92.40
55785;DHT22;41709;52.536;5.688;2023-10-08T02:04:33;15.80;92.50
55785;DHT22;41709;52.536;5.688;2023-10-08T02:07:04;15.70;92.70
55785;DHT22;41709;52.536;5.688;2023-10-08T02:09:36;15.30;92.50
55785;DHT22;41709;52.536;5.688;2023-10-08T02:12:02;14.90;92.60
55785;DHT22;41709;52.536;5.688;2023-10-08T02:14:29;14.60;92.80
55785;DHT22;41709;52.536;5.688;2023-10-08T02:16:57;14.40;93.10
55785;DHT22;41709;52.536;5.688;2023-10-08T02:19:27;14.30;93.40
55785;DHT22;41709;52.536;5.688;2023-10-08T02:21:53;14.10;93.60
55785;DHT22;41709;52.536;5.688;2023-10-08T02:24:20;14.10;93.80
55785;DHT22;41709;52.536;5.688;2023-10-08T02:26:47;13.90;94.00
55785;DHT22;41709;52.536;5.688;2023-10-08T02:29:13;13.70;94.00
55785;DHT22;41709;52.536;5.688;2023-10-08T02:31:39;13.70;94.30
55785;DHT22;41709;52.536;5.688;2023-10-08T02:34:06;13.60;94.40
55785;DHT22;41709;52.536;5.688;2023-10-08T02:36:38;13.60;94.40
55785;DHT22;41709;52.536;5.688;2023-10-08T02:39:04;13.60;94.60
55785;DHT22;41709;52.536;5.688;2023-10-08T02:41:33;13.60;94.60
55785;DHT22;41709;52.536;5.688;2023-10-08T02:43:59;13.50;94.70
55785;DHT22;41709;52.536;5.688;2023-10-08T02:46:25;13.50;94.90
55785;DHT22;41709;52.536;5.688;2023-10-08T02:48:52;13.50;94.90
55785;DHT22;41709;52.536;5.688;2023-10-08T02:51:18;13.50;95.00
55785;DHT22;41709;52.536;5.688;2023-10-08T02:53:46;13.40;95.20
55785;DHT22;41709;52.536;5.688;2023-10-08T02:56:12;13.40;95.20
55785;DHT22;41709;52.536;5.688;2023-10-08T02:58:40;13.40;95.20
55785;DHT22;41709;52.536;5.688;2023-10-08T03:01:07;13.40;95.10
55785;DHT22;41709;52.536;5.688;2023-10-08T03:03:39;13.40;95.10
55785;DHT22;41709;52.536;5.688;2023-10-08T03:06:04;13.30;95.00
55785;DHT22;41709;52.536;5.688;2023-10-08T03:08:33;13.30;95.00
55785;DHT22;41709;52.536;5.688;2023-10-08T03:11:02;13.40;94.90
55785;DHT22;41709;52.536;5.688;2023-10-08T03:13:32;13.30;95.00
55785;DHT22;41709;52.536;5.688;2023-10-08T03:15:57;13.30;95.00
55785;DHT22;41709;52.536;5.688;2023-10-08T03:18:34;13.30;94.90
55785;DHT22;41709;52.536;5.688;2023-10-08T03:21:07;13.30;95.10
55785;DHT22;41709;52.536;5.688;2023-10-08T03:24:08;13.30;95.10
55785;DHT22;41709;52.536;5.688;2023-10-08T03:26:59;13.30;95.10
55785;DHT22;41709;52.536;5.688;2023-10-08T03:29:43;13.30;95.20
55785;DHT22;41709;52.536;5.688;2023-10-08T03:32:10;13.20;95.30
55785;DHT22;41709;52.536;5.688;2023-10-08T03:34:46;13.20;95.30
55785;DHT22;41709;52.536;5.688;2023-10-08T03:37:14;13.10;95.50
55785;DHT22;41709;52.536;5.688;2023-10-08T03:39:50;13.10;95.60
55785;DHT22;41709;52.536;5.688;2023-10-08T03:42:47;13.10;95.70
55785;DHT22;41709;52.536;5.688;2023-10-08T03:45:15;13.20;95.70
55785;DHT22;41709;52.536;5.688;2023-10-08T03:47:48;13.20;95.70
55785;DHT22;41709;52.536;5.688;2023-10-08T03:50:29;13.20;95.60
55785;DHT22;41709;52.536;5.688;2023-10-08T03:53:15;13.30;95.40
55785;DHT22;41709;52.536;5.688;2023-10-08T03:55:41;13.40;95.40
55785;DHT22;41709;52.536;5.688;2023-10-08T03:58:08;13.40;95.30
55785;DHT22;41709;52.536;5.688;2023-10-08T04:00:45;13.50;95.20
55785;DHT22;41709;52.536;5.688;2023-10-08T04:03:11;13.50;95.10
55785;DHT22;41709;52.536;5.688;2023-10-08T04:05:40;13.50;95.00
55785;DHT22;41709;52.536;5.688;2023-10-08T04:08:09;13.50;94.80
55785;DHT22;41709;52.536;5.688;2023-10-08T04:10:59;13.60;94.80
55785;DHT22;41709;52.536;5.688;2023-10-08T04:13:36;13.60;94.60
55785;DHT22;41709;52.536;5.688;2023-10-08T04:16:10;13.60;94.50
55785;DHT22;41709;52.536;5.688;2023-10-08T04:18:35;13.60;94.30
55785;DHT22;41709;52.536;5.688;2023-10-08T04:21:06;13.60;94.20
55785;DHT22;41709;52.536;5.688;2023-10-08T04:23:39;13.70;94.10
55785;DHT22;41709;52.536;5.688;2023-10-08T04:26:04;13.80;93.90
55785;DHT22;41709;52.536;5.688;2023-10-08T04:28:32;13.80;93.70
55785;DHT22;41709;52.536;5.688;2023-10-08T04:31:00;13.90;93.70
55785;DHT22;41709;52.536;5.688;2023-10-08T04:33:40;13.90;93.50
55785;DHT22;41709;52.536;5.688;2023-10-08T04:36:05;13.90;93.80
55785;DHT22;41709;52.536;5.688;2023-10-08T04:38:33;13.90;93.60
55785;DHT22;41709;52.536;5.688;2023-10-08T04:41:05;13.80;93.50
55785;DHT22;41709;52.536;5.688;2023-10-08T04:43:35;13.80;93.50
55785;DHT22;41709;52.536;5.688;2023-10-08T04:46:03;13.80;93.50
55785;DHT22;41709;52.536;5.688;2023-10-08T04:48:48;13.70;93.90
55785;DHT22;41709;52.536;5.688;2023-10-08T04:51:15;13.60;93.70
55785;DHT22;41709;52.536;5.688;2023-10-08T04:53:43;13.70;93.80
55785;DHT22;41709;52.536;5.688;2023-10-08T04:56:12;13.70;93.70
55785;DHT22;41709;52.536;5.688;2023-10-08T04:58:48;13.70;93.60
55785;DHT22;41709;52.536;5.688;2023-10-08T05:01:18;13.70;93.60
55785;DHT22;41709;52.536;5.688;2023-10-08T05:03:54;13.70;93.60
55785;DHT22;41709;52.536;5.688;2023-10-08T05:06:27;13.70;93.60
55785;DHT22;41709;52.536;5.688;2023-10-08T05:09:07;13.60;93.60
55785;DHT22;41709;52.536;5.688;2023-10-08T05:11:39;13.70;93.70
55785;DHT22;41709;52.536;5.688;2023-10-08T05:14:10;13.70;93.80
55785;DHT22;41709;52.536;5.688;2023-10-08T05:16:42;13.60;93.50
55785;DHT22;41709;52.536;5.688;2023-10-08T05:19:26;13.40;93.70
55785;DHT22;41709;52.536;5.688;2023-10-08T05:22:11;13.40;93.80
55785;DHT22;41709;52.536;5.688;2023-10-08T05:24:45;13.30;93.80
55785;DHT22;41709;52.536;5.688;2023-10-08T05:27:39;13.40;93.80
55785;DHT22;41709;52.536;5.688;2023-10-08T05:30:24;13.40;93.70
55785;DHT22;41709;52.536;5.688;2023-10-08T05:32:54;13.50;93.60
55785;DHT22;41709;52.536;5.688;2023-10-08T05:35:29;13.50;93.60
55785;DHT22;41709;52.536;5.688;2023-10-08T05:38:07;13.60;93.60
55785;DHT22;41709;52.536;5.688;2023-10-08T05:40:45;13.60;93.40
55785;DHT22;41709;52.536;5.688;2023-10-08T05:43:39;13.60;93.40
55785;DHT22;41709;52.536;5.688;2023-10-08T05:46:15;13.60;93.30
55785;DHT22;41709;52.536;5.688;2023-10-08T05:48:56;13.60;93.30
55785;DHT22;41709;52.536;5.688;2023-10-08T05:51:38;13.50;93.40
55785;DHT22;41709;52.536;5.688;2023-10-08T05:54:31;13.50;93.40
55785;DHT22;41709;52.536;5.688;2023-10-08T05:57:05;13.50;93.50
55785;DHT22;41709;52.536;5.688;2023-10-08T05:59:48;13.50;93.50
55785;DHT22;41709;52.536;5.688;2023-10-08T06:02:36;13.40;93.50
55785;DHT22;41709;52.536;5.688;2023-10-08T06:05:25;13.50;93.60
55785;DHT22;41709;52.536;5.688;2023-10-08T06:07:58;13.40;93.60
55785;DHT22;41709;52.536;5.688;2023-10-08T06:10:36;13.50;93.70
55785;DHT22;41709;52.536;5.688;2023-10-08T06:13:07;13.50;93.60
55785;DHT22;41709;52.536;5.688;2023-10-08T06:15:49;13.60;93.30
55785;DHT22;41709;52.536;5.688;2023-10-08T06:18:26;13.60;93.20
55785;DHT22;41709;52.536;5.688;2023-10-08T06:20:56;13.60;92.90
55785;DHT22;41709;52.536;5.688;2023-10-08T06:23:24;13.70;92.80
55785;DHT22;41709;52.536;5.688;2023-10-08T06:25:51;13.80;92.80
55785;DHT22;41709;52.536;5.688;2023-10-08T06:28:25;13.70;92.70
55785;DHT22;41709;52.536;5.688;2023-10-08T06:30:55;13.70;92.60
55785;DHT22;41709;52.536;5.688;2023-10-08T06:33:23;13.70;92.60
55785;DHT22;41709;52.536;5.688;2023-10-08T06:35:51;13.70;92.70
55785;DHT22;41709;52.536;5.688;2023-10-08T06:38:41;13.80;92.80
55785;DHT22;41709;52.536;5.688;2023-10-08T06:41:09;13.80;92.70
55785;DHT22;41709;52.536;5.688;2023-10-08T06:43:45;14.00;92.70
55785;DHT22;41709;52.536;5.688;2023-10-08T06:46:13;14.10;92.50
55785;DHT22;41709;52.536;5.688;2023-10-08T06:48:40;14.10;92.50
55785;DHT22;41709;52.536;5.688;2023-10-08T06:51:09;14.10;92.40
55785;DHT22;41709;52.536;5.688;2023-10-08T06:53:45;14.20;92.20
55785;DHT22;41709;52.536;5.688;2023-10-08T06:56:15;14.20;92.10
55785;DHT22;41709;52.536;5.688;2023-10-08T06:58:42;14.20;92.10
55785;DHT22;41709;52.536;5.688;2023-10-08T07:01:16;14.20;92.20
55785;DHT22;41709;52.536;5.688;2023-10-08T07:03:51;14.10;92.20
55785;DHT22;41709;52.536;5.688;2023-10-08T07:06:18;14.10;92.10
55785;DHT22;41709;52.536;5.688;2023-10-08T07:08:57;14.00;92.20
55785;DHT22;41709;52.536;5.688;2023-10-08T07:11:25;14.00;92.40
55785;DHT22;41709;52.536;5.688;2023-10-08T07:13:52;14.00;92.50
55785;DHT22;41709;52.536;5.688;2023-10-08T07:16:18;14.10;92.40
55785;DHT22;41709;52.536;5.688;2023-10-08T07:18:46;14.20;92.10
55785;DHT22;41709;52.536;5.688;2023-10-08T07:21:19;14.20;92.10
55785;DHT22;41709;52.536;5.688;2023-10-08T07:23:49;14.10;92.00
55785;DHT22;41709;52.536;5.688;2023-10-08T07:26:27;14.00;92.00
55785;DHT22;41709;52.536;5.688;2023-10-08T07:29:02;14.00;92.40
55785;DHT22;41709;52.536;5.688;2023-10-08T07:31:34;13.90;92.10
55785;DHT22;41709;52.536;5.688;2023-10-08T07:34:02;13.90;92.10
55785;DHT22;41709;52.536;5.688;2023-10-08T07:36:47;13.70;92.20
55785;DHT22;41709;52.536;5.688;2023-10-08T07:39:14;13.60;92.30
55785;DHT22;41709;52.536;5.688;2023-10-08T07:41:58;13.60;92.50
55785;DHT22;41709;52.536;5.688;2023-10-08T07:44:26;13.60;92.60
55785;DHT22;41709;52.536;5.688;2023-10-08T07:46:53;13.60;92.50
55785;DHT22;41709;52.536;5.688;2023-10-08T07:49:22;13.70;92.60
55785;DHT22;41709;52.536;5.688;2023-10-08T07:51:49;13.80;92.40
55785;DHT22;41709;52.536;5.688;2023-10-08T07:54:19;13.80;92.30
55785;DHT22;41709;52.536;5.688;2023-10-08T07:56:46;13.90;92.20
55785;DHT22;41709;52.536;5.688;2023-10-08T07:59:13;13.90;92.00
55785;DHT22;41709;52.536;5.688;2023-10-08T08:01:40;13.90;92.00
55785;DHT22;41709;52.536;5.688;2023-10-08T08:04:09;13.90;92.00
55785;DHT22;41709;52.536;5.688;2023-10-08T08:06:37;13.80;92.20
55785;DHT22;41709;52.536;5.688;2023-10-08T08:09:02;13.80;92.20
55785;DHT22;41709;52.536;5.688;2023-10-08T08:11:34;13.90;92.20
55785;DHT22;41709;52.536;5.688;2023-10-08T08:14:02;13.90;92.20
55785;DHT22;41709;52.536;5.688;2023-10-08T08:16:33;13.90;91.80
55785;DHT22;41709;52.536;5.688;2023-10-08T08:19:01;13.90;91.80
55785;DHT22;41709;52.536;5.688;2023-10-08T08:21:27;13.90;91.60
55785;DHT22;41709;52.536;5.688;2023-10-08T08:23:56;13.90;91.40
55785;DHT22;41709;52.536;5.688;2023-10-08T08:26:30;14.00;91.40
55785;DHT22;41709;52.536;5.688;2023-10-08T08:29:05;14.00;91.20
55785;DHT22;41709;52.536;5.688;2023-10-08T08:31:34;14.00;91.30
55785;DHT22;41709;52.536;5.688;2023-10-08T08:34:03;14.10;90.90
55785;DHT22;41709;52.536;5.688;2023-10-08T08:36:33;14.00;90.80
55785;DHT22;41709;52.536;5.688;2023-10-08T08:38:59;14.00;90.50
55785;DHT22;41709;52.536;5.688;2023-10-08T08:41:25;14.00;90.70
55785;DHT22;41709;52.536;5.688;2023-10-08T08:43:51;14.00;90.90
55785;DHT22;41709;52.536;5.688;2023-10-08T08:46:42;14.10;90.80
55785;DHT22;41709;52.536;5.688;2023-10-08T08:49:08;14.20;90.60
55785;DHT22;41709;52.536;5.688;2023-10-08T08:51:35;14.20;90.40
55785;DHT22;41709;52.536;5.688;2023-10-08T08:54:02;14.30;90.50
55785;DHT22;41709;52.536;5.688;2023-10-08T08:56:33;14.50;90.10
55785;DHT22;41709;52.536;5.688;2023-10-08T08:59:00;14.50;89.10
55785;DHT22;41709;52.536;5.688;2023-10-08T09:01:27;14.60;89.20
55785;DHT22;41709;52.536;5.688;2023-10-08T09:03:59;14.70;89.10
55785;DHT22;41709;52.536;5.688;2023-10-08T09:06:26;14.80;89.00
55785;DHT22;41709;52.536;5.688;2023-10-08T09:08:53;14.90;88.80
55785;DHT22;41709;52.536;5.688;2023-10-08T09:11:21;15.00;88.80
55785;DHT22;41709;52.536;5.688;2023-10-08T09:13:47;15.10;88.60
55785;DHT22;41709;52.536;5.688;2023-10-08T09:16:15;15.20;88.60
55785;DHT22;41709;52.536;5.688;2023-10-08T09:18:44;15.30;87.10
55785;DHT22;41709;52.536;5.688;2023-10-08T09:21:15;15.30;86.40
55785;DHT22;41709;52.536;5.688;2023-10-08T09:23:46;15.30;86.40
55785;DHT22;41709;52.536;5.688;2023-10-08T09:26:16;15.30;86.10
55785;DHT22;41709;52.536;5.688;2023-10-08T09:28:46;15.30;86.20
55785;DHT22;41709;52.536;5.688;2023-10-08T09:31:13;15.40;86.00
55785;DHT22;41709;52.536;5.688;2023-10-08T09:33:39;15.50;86.30
55785;DHT22;41709;52.536;5.688;2023-10-08T09:36:06;15.60;85.60
55785;DHT22;41709;52.536;5.688;2023-10-08T09:38:37;15.60;85.20
55785;DHT22;41709;52.536;5.688;2023-10-08T09:41:03;15.70;84.90
55785;DHT22;41709;52.536;5.688;2023-10-08T09:43:31;15.80;84.30
55785;DHT22;41709;52.536;5.688;2023-10-08T09:46:18;15.90;84.20
55785;DHT22;41709;52.536;5.688;2023-10-08T09:48:50;16.00;84.10
55785;DHT22;41709;52.536;5.688;2023-10-08T09:51:19;16.10;83.10
55785;DHT22;41709;52.536;5.688;2023-10-08T09:53:55;16.20;83.20
55785;DHT22;41709;52.536;5.688;2023-10-08T09:56:24;16.20;82.90
55785;DHT22;41709;52.536;5.688;2023-10-08T09:58:54;16.30;83.00
55785;DHT22;41709;52.536;5.688;2023-10-08T10:01:20;16.40;81.60
55785;DHT22;41709;52.536;5.688;2023-10-08T10:03:48;16.40;81.30
55785;DHT22;41709;52.536;5.688;2023-10-08T10:06:15;16.50;80.50
55785;DHT22;41709;52.536;5.688;2023-10-08T10:08:43;16.50;80.00
55785;DHT22;41709;52.536;5.688;2023-10-08T10:11:09;16.50;80.30
55785;DHT22;41709;52.536;5.688;2023-10-08T10:13:50;16.50;80.50
55785;DHT22;41709;52.536;5.688;2023-10-08T10:16:19;16.60;80.30
55785;DHT22;41709;52.536;5.688;2023-10-08T10:18:49;16.50;79.50
55785;DHT22;41709;52.536;5.688;2023-10-08T10:23:47;16.30;79.70
55785;DHT22;41709;52.536;5.688;2023-10-08T10:31:38;16.40;79.80
55785;DHT22;41709;52.536;5.688;2023-10-08T10:34:07;16.50;79.30
55785;DHT22;41709;52.536;5.688;2023-10-08T10:36:37;16.50;78.90
55785;DHT22;41709;52.536;5.688;2023-10-08T10:39:05;16.60;78.80
55785;DHT22;41709;52.536;5.688;2023-10-08T10:41:52;16.60;78.20
55785;DHT22;41709;52.536;5.688;2023-10-08T10:44:24;16.60;78.80
55785;DHT22;41709;52.536;5.688;2023-10-08T10:46:50;16.60;79.00
55785;DHT22;41709;52.536;5.688;2023-10-08T10:49:38;16.60;79.00
55785;DHT22;41709;52.536;5.688;2023-10-08T10:52:23;16.60;78.20
55785;DHT22;41709;52.536;5.688;2023-10-08T10:55:04;16.60;78.10
55785;DHT22;41709;52.536;5.688;2023-10-08T10:57:56;16.70;78.30
55785;DHT22;41709;52.536;5.688;2023-10-08T11:00:26;16.70;78.80
55785;DHT22;41709;52.536;5.688;2023-10-08T11:02:59;16.70;77.70
55785;DHT22;41709;52.536;5.688;2023-10-08T11:05:32;16.60;77.80
55785;DHT22;41709;52.536;5.688;2023-10-08T11:08:00;16.70;78.20
55785;DHT22;41709;52.536;5.688;2023-10-08T11:10:34;16.60;78.30
55785;DHT22;41709;52.536;5.688;2023-10-08T11:13:05;16.80;78.20
55785;DHT22;41709;52.536;5.688;2023-10-08T11:15:31;16.70;78.00
55785;DHT22;41709;52.536;5.688;2023-10-08T11:18:16;16.80;77.80
55785;DHT22;41709;52.536;5.688;2023-10-08T11:20:42;16.80;77.70
55785;DHT22;41709;52.536;5.688;2023-10-08T11:23:34;16.80;77.70
55785;DHT22;41709;52.536;5.688;2023-10-08T11:26:02;16.90;78.10
55785;DHT22;41709;52.536;5.688;2023-10-08T11:28:30;16.90;77.70
55785;DHT22;41709;52.536;5.688;2023-10-08T11:31:00;16.90;78.00
55785;DHT22;41709;52.536;5.688;2023-10-08T11:33:36;16.90;76.70
55785;DHT22;41709;52.536;5.688;2023-10-08T11:36:06;16.90;76.90
55785;DHT22;41709;52.536;5.688;2023-10-08T11:38:40;17.00;77.20
55785;DHT22;41709;52.536;5.688;2023-10-08T11:41:13;17.00;77.20
55785;DHT22;41709;52.536;5.688;2023-10-08T11:43:54;17.10;78.30
55785;DHT22;41709;52.536;5.688;2023-10-08T11:46:30;17.10;77.00
55785;DHT22;41709;52.536;5.688;2023-10-08T11:49:10;17.20;76.20
55785;DHT22;41709;52.536;5.688;2023-10-08T11:51:43;17.20;76.60
55785;DHT22;41709;52.536;5.688;2023-10-08T11:54:09;17.20;77.20
55785;DHT22;41709;52.536;5.688;2023-10-08T11:56:37;17.20;76.30
55785;DHT22;41709;52.536;5.688;2023-10-08T11:59:03;17.30;76.00
55785;DHT22;41709;52.536;5.688;2023-10-08T12:01:34;17.30;76.40
55785;DHT22;41709;52.536;5.688;2023-10-08T12:04:01;17.30;76.40
55785;DHT22;41709;52.536;5.688;2023-10-08T12:06:27;17.40;76.40
55785;DHT22;41709;52.536;5.688;2023-10-08T12:08:58;17.40;76.50
55785;DHT22;41709;52.536;5.688;2023-10-08T12:11:27;17.40;77.20
55785;DHT22;41709;52.536;5.688;2023-10-08T12:13:57;17.50;76.80
55785;DHT22;41709;52.536;5.688;2023-10-08T12:16:25;17.50;76.60
55785;DHT22;41709;52.536;5.688;2023-10-08T12:18:55;17.60;77.90
55785;DHT22;41709;52.536;5.688;2023-10-08T12:21:25;17.70;76.10
55785;DHT22;41709;52.536;5.688;2023-10-08T12:23:50;17.80;76.60
55785;DHT22;41709;52.536;5.688;2023-10-08T12:26:17;17.90;76.30
55785;DHT22;41709;52.536;5.688;2023-10-08T12:28:45;17.90;76.10
55785;DHT22;41709;52.536;5.688;2023-10-08T12:31:17;18.00;76.40
55785;DHT22;41709;52.536;5.688;2023-10-08T12:33:48;18.10;76.40
55785;DHT22;41709;52.536;5.688;2023-10-08T12:36:14;18.20;76.20
55785;DHT22;41709;52.536;5.688;2023-10-08T12:38:43;18.30;76.10
55785;DHT22;41709;52.536;5.688;2023-10-08T12:41:12;18.40;75.80
55785;DHT22;41709;52.536;5.688;2023-10-08T12:43:39;18.50;76.50
55785;DHT22;41709;52.536;5.688;2023-10-08T12:46:08;18.60;74.90
55785;DHT22;41709;52.536;5.688;2023-10-08T12:48:37;18.80;74.30
55785;DHT22;41709;52.536;5.688;2023-10-08T12:51:03;18.80;73.40
55785;DHT22;41709;52.536;5.688;2023-10-08T12:53:32;18.90;74.40
55785;DHT22;41709;52.536;5.688;2023-10-08T12:56:05;18.90;74.40
55785;DHT22;41709;52.536;5.688;2023-10-08T12:58:34;19.00;74.70
55785;DHT22;41709;52.536;5.688;2023-10-08T13:01:10;19.10;74.40
55785;DHT22;41709;52.536;5.688;2023-10-08T13:03:37;19.10;73.50
55785;DHT22;41709;52.536;5.688;2023-10-08T13:06:14;19.10;73.00
55785;DHT22;41709;52.536;5.688;2023-10-08T13:08:50;19.10;73.50
55785;DHT22;41709;52.536;5.688;2023-10-08T13:11:18;19.10;73.50
55785;DHT22;41709;52.536;5.688;2023-10-08T13:13:51;19.20;73.70
55785;DHT22;41709;52.536;5.688;2023-10-08T13:16:18;19.20;73.80
55785;DHT22;41709;52.536;5.688;2023-10-08T13:18:50;19.20;75.10
55785;DHT22;41709;52.536;5.688;2023-10-08T13:21:16;19.20;75.00
55785;DHT22;41709;52.536;5.688;2023-10-08T13:23:44;19.20;74.60
55785;DHT22;41709;52.536;5.688;2023-10-08T13:26:10;19.20;74.60
55785;DHT22;41709;52.536;5.688;2023-10-08T13:28:42;19.20;73.40
55785;DHT22;41709;52.536;5.688;2023-10-08T13:31:08;19.10;74.20
55785;DHT22;41709;52.536;5.688;2023-10-08T13:33:38;19.10;74.70
55785;DHT22;41709;52.536;5.688;2023-10-08T13:36:11;19.10;76.00
55785;DHT22;41709;52.536;5.688;2023-10-08T13:38:39;19.10;77.90
55785;DHT22;41709;52.536;5.688;2023-10-08T13:41:09;19.10;79.10
55785;DHT22;41709;52.536;5.688;2023-10-08T13:43:41;19.10;77.90
55785;DHT22;41709;52.536;5.688;2023-10-08T13:46:11;19.20;78.20
55785;DHT22;41709;52.536;5.688;2023-10-08T13:48:41;19.20;76.40
55785;DHT22;41709;52.536;5.688;2023-10-08T13:51:08;19.20;77.60
55785;DHT22;41709;52.536;5.688;2023-10-08T13:53:40;19.20;78.00
55785;DHT22;41709;52.536;5.688;2023-10-08T13:56:06;19.30;78.30
55785;DHT22;41709;52.536;5.688;2023-10-08T13:58:31;19.30;78.10
55785;DHT22;41709;52.536;5.688;2023-10-08T14:01:01;19.40;78.30
55785;DHT22;41709;52.536;5.688;2023-10-08T14:03:29;19.40;77.80
55785;DHT22;41709;52.536;5.688;2023-10-08T14:05:59;19.50;76.70
55785;DHT22;41709;52.536;5.688;2023-10-08T14:08:30;19.50;77.60
55785;DHT22;41709;52.536;5.688;2023-10-08T14:10:59;19.60;75.50
55785;DHT22;41709;52.536;5.688;2023-10-08T14:13:31;19.60;74.80
55785;DHT22;41709;52.536;5.688;2023-10-08T14:15:58;19.70;75.20
55785;DHT22;41709;52.536;5.688;2023-10-08T14:18:24;19.90;75.60
55785;DHT22;41709;52.536;5.688;2023-10-08T14:20:57;20.10;74.80
55785;DHT22;41709;52.536;5.688;2023-10-08T14:23:23;20.30;73.30
55785;DHT22;41709;52.536;5.688;2023-10-08T14:25:51;20.50;73.60
55785;DHT22;41709;52.536;5.688;2023-10-08T14:28:19;20.80;72.30
55785;DHT22;41709;52.536;5.688;2023-10-08T14:30:49;21.10;71.00
55785;DHT22;41709;52.536;5.688;2023-10-08T14:33:20;21.30;70.70
55785;DHT22;41709;52.536;5.688;2023-10-08T14:35:50;21.40;69.20
55785;DHT22;41709;52.536;5.688;2023-10-08T14:38:35;21.40;70.50
55785;DHT22;41709;52.536;5.688;2023-10-08T14:41:19;21.30;68.70
55785;DHT22;41709;52.536;5.688;2023-10-08T14:44:03;21.30;68.90
55785;DHT22;41709;52.536;5.688;2023-10-08T14:46:30;21.20;69.20
55785;DHT22;41709;52.536;5.688;2023-10-08T14:48:58;21.10;69.20
55785;DHT22;41709;52.536;5.688;2023-10-08T14:51:24;21.00;70.80
55785;DHT22;41709;52.536;5.688;2023-10-08T14:53:50;20.80;69.00
55785;DHT22;41709;52.536;5.688;2023-10-08T14:56:16;20.70;70.90
55785;DHT22;41709;52.536;5.688;2023-10-08T14:58:44;20.50;70.30
55785;DHT22;41709;52.536;5.688;2023-10-08T15:01:09;20.40;70.50
55785;DHT22;41709;52.536;5.688;2023-10-08T15:03:38;20.30;71.80
55785;DHT22;41709;52.536;5.688;2023-10-08T15:06:04;20.20;72.70
55785;DHT22;41709;52.536;5.688;2023-10-08T15:08:30;20.10;70.80
55785;DHT22;41709;52.536;5.688;2023-10-08T15:10:58;20.00;71.30
55785;DHT22;41709;52.536;5.688;2023-10-08T15:13:23;19.90;72.80
55785;DHT22;41709;52.536;5.688;2023-10-08T15:15:51;19.80;72.80
55785;DHT22;41709;52.536;5.688;2023-10-08T15:18:16;19.70;72.00
55785;DHT22;41709;52.536;5.688;2023-10-08T15:20:44;19.50;73.00
55785;DHT22;41709;52.536;5.688;2023-10-08T15:23:10;19.50;74.50
55785;DHT22;41709;52.536;5.688;2023-10-08T15:25:37;19.30;73.60
55785;DHT22;41709;52.536;5.688;2023-10-08T15:28:04;19.30;73.90
55785;DHT22;41709;52.536;5.688;2023-10-08T15:30:29;19.20;74.50
55785;DHT22;41709;52.536;5.688;2023-10-08T15:32:55;19.20;74.70
55785;DHT22;41709;52.536;5.688;2023-10-08T15:35:20;19.20;74.20
55785;DHT22;41709;52.536;5.688;2023-10-08T15:37:50;19.10;74.30
55785;DHT22;41709;52.536;5.688;2023-10-08T15:40:15;19.10;74.50
55785;DHT22;41709;52.536;5.688;2023-10-08T15:42:55;19.00;74.80
55785;DHT22;41709;52.536;5.688;2023-10-08T15:45:23;19.00;75.00
55785;DHT22;41709;52.536;5.688;2023-10-08T15:47:49;19.00;75.10
55785;DHT22;41709;52.536;5.688;2023-10-08T15:50:15;18.90;75.70
55785;DHT22;41709;52.536;5.688;2023-10-08T15:52:40;19.00;75.60
55785;DHT22;41709;52.536;5.688;2023-10-08T15:55:07;18.90;76.20
55785;DHT22;41709;52.536;5.688;2023-10-08T15:57:36;18.80;76.10
55785;DHT22;41709;52.536;5.688;2023-10-08T16:00:02;18.80;75.90
55785;DHT22;41709;52.536;5.688;2023-10-08T16:02:28;18.80;76.50